Time;durP1;ratioP1;P1;durP2;ratioP2;P2;SDS_P1;SDS_P2;PMS_P1;PMS_P2;Temp;Humidity;BMP_temperature;BMP_pressure;BME280_temperature;BME280_humidity;BME280_pressure;Samples;Min_cycle;Max_cycle;Signal;HPM_P1;HPM_P2
2023/07/07 00:01:16;;;;;;;9.45;2.42;;;;;;;;;;5048470;28;20212;-82
2023/07/07 00:03:42;;;;;;;7.25;2.05;;;16.60;99.90;;;;;;5035597;28;20170;-72
2023/07/07 00:06:08;;;;;;;4.55;2.25;;;16.50;99.90;;;;;;5031109;28;20181;-74
2023/07/07 00:08:33;;;;;;;5.90;2.50;;;16.40;1.00;;;;;;5030718;28;20772;-74
2023/07/07 00:11:00;;;;;;;5.03;1.90;;;16.40;1.00;;;;;;5030420;28;20241;-74
2023/07/07 00:13:25;;;;;;;10.18;2.30;;;16.40;1.00;;;;;;5030320;28;20236;-74
2023/07/07 00:15:58;;;;;;;12.23;2.22;;;16.30;1.00;;;;;;5030665;28;20181;-77
2023/07/07 00:18:26;;;;;;;9.05;2.30;;;16.40;1.00;;;;;;5030600;28;20629;-76
2023/07/07 00:20:55;;;;;;;6.82;2.20;;;16.30;1.00;;;;;;5030645;28;20178;-76
2023/07/07 00:23:20;;;;;;;7.97;2.65;;;16.60;1.00;;;;;;5030271;28;20190;-76
2023/07/07 00:26:00;;;;;;;9.35;2.45;;;16.30;1.00;;;;;;5031022;28;20280;-76
2023/07/07 00:28:26;;;;;;;7.13;2.58;;;16.30;18.40;;;;;;5030540;28;20169;-77
2023/07/07 00:30:52;;;;;;;6.10;2.50;;;16.30;47.10;;;;;;5030223;28;20210;-77
2023/07/07 00:33:17;;;;;;;6.97;2.05;;;16.30;72.00;;;;;;5030499;28;20581;-82
2023/07/07 00:35:47;;;;;;;13.10;2.53;;;16.30;99.90;;;;;;5030246;28;20202;-76
2023/07/07 00:38:13;;;;;;;6.65;2.55;;;16.20;99.90;;;;;;5030466;28;20189;-81
2023/07/07 00:40:39;;;;;;;5.82;2.40;;;16.20;99.90;;;;;;5030734;28;20178;-80
2023/07/07 00:43:17;;;;;;;5.35;2.40;;;16.20;99.90;;;;;;5030504;28;20253;-80
2023/07/07 00:45:44;;;;;;;4.90;2.00;;;16.40;99.90;;;;;;5030665;28;20172;-81
2023/07/07 00:48:17;;;;;;;4.78;2.40;;;16.20;99.90;;;;;;5030529;28;20176;-81
2023/07/07 00:50:49;;;;;;;4.90;2.30;;;16.10;99.90;;;;;;5023232;28;20228;-80
2023/07/07 00:53:15;;;;;;;6.28;2.35;;;16.10;99.90;;;;;;5029060;28;20201;-80
2023/07/07 00:55:44;;;;;;;5.95;2.45;;;16.00;99.90;;;;;;5025358;28;20213;-80
2023/07/07 00:58:13;;;;;;;6.30;2.47;;;15.90;99.90;;;;;;5010351;28;20225;-80
2023/07/07 01:00:43;;;;;;;8.13;2.53;;;16.00;99.90;;;;;;5010515;28;20174;-80
2023/07/07 01:03:13;;;;;;;8.38;2.28;;;16.00;99.90;;;;;;5010586;28;20181;-79
2023/07/07 01:05:41;;;;;;;5.75;2.28;;;15.90;99.90;;;;;;5010570;28;20185;-80
2023/07/07 01:08:07;;;;;;;8.73;2.47;;;15.90;99.90;;;;;;5017556;28;20178;-79
2023/07/07 01:10:33;;;;;;;7.40;2.35;;;15.70;99.90;;;;;;5030181;28;20213;-79
2023/07/07 01:12:59;;;;;;;7.75;2.75;;;15.80;99.90;;;;;;5031578;28;20737;-74
2023/07/07 01:15:30;;;;;;;7.10;2.40;;;15.80;99.90;;;;;;5033665;28;20178;-72
2023/07/07 01:18:18;;;;;;;8.18;2.70;;;15.70;99.90;;;;;;5034035;28;20202;-73
2023/07/07 01:21:01;;;;;;;5.50;2.25;;;15.70;99.90;;;;;;5033701;28;20239;-74
2023/07/07 01:24:02;;;;;;;6.60;2.80;;;15.60;99.90;;;;;;5033608;28;20181;-73
2023/07/07 01:26:45;;;;;;;4.22;2.40;;;15.60;99.90;;;;;;5033531;28;20636;-74
2023/07/07 01:29:21;;;;;;;4.10;2.22;;;15.50;99.90;;;;;;5033577;28;20196;-70
2023/07/07 01:31:55;;;;;;;6.82;2.28;;;15.60;99.90;;;;;;5033084;28;20186;-71
2023/07/07 01:34:22;;;;;;;6.05;2.78;;;15.50;99.90;;;;;;5033193;28;20192;-72
2023/07/07 01:36:47;;;;;;;5.30;2.28;;;15.50;99.90;;;;;;5032899;28;20242;-71
2023/07/07 01:39:13;;;;;;;5.10;2.50;;;15.50;99.90;;;;;;5033737;28;20680;-71
2023/07/07 01:41:46;;;;;;;6.95;2.65;;;15.40;99.90;;;;;;5033640;28;20170;-73
2023/07/07 01:44:40;;;;;;;4.03;2.25;;;15.20;99.90;;;;;;5033158;28;20196;-73
2023/07/07 01:47:23;;;;;;;9.88;2.10;;;15.40;99.90;;;;;;5032905;28;20186;-73
2023/07/07 01:50:14;;;;;;;6.15;2.08;;;15.20;99.90;;;;;;5033176;28;20545;-73
2023/07/07 01:52:51;;;;;;;10.35;2.60;;;15.40;99.90;;;;;;5033152;28;20285;-73
2023/07/07 01:55:19;;;;;;;8.43;2.03;;;15.40;99.90;;;;;;5033038;28;20178;-73
2023/07/07 01:57:48;;;;;;;6.68;2.15;;;15.40;99.90;;;;;;5033321;28;20253;-72
2023/07/07 02:00:16;;;;;;;6.30;2.17;;;15.50;99.90;;;;;;5032722;28;20227;-73
2023/07/07 02:02:42;;;;;;;7.90;2.20;;;;;;;;;;5032816;28;20177;-73
2023/07/07 02:05:09;;;;;;;9.75;2.15;;;15.40;99.90;;;;;;5032977;28;20177;-74
2023/07/07 02:07:35;;;;;;;5.88;2.03;;;;;;;;;;5032381;28;20177;-73
2023/07/07 02:10:01;;;;;;;8.70;1.90;;;;;;;;;;5032862;28;20209;-73
2023/07/07 02:12:27;;;;;;;9.55;2.47;;;;;;;;;;5031755;28;20681;-73
2023/07/07 02:14:53;;;;;;;12.48;2.45;;;;;;;;;;5032735;28;20177;-74
2023/07/07 02:17:19;;;;;;;12.18;2.55;;;15.50;99.90;;;;;;5032352;28;20174;-73
2023/07/07 02:19:45;;;;;;;9.90;2.20;;;15.50;99.90;;;;;;5032448;28;20178;-81
2023/07/07 02:22:11;;;;;;;5.93;2.33;;;15.40;99.90;;;;;;5032557;28;20200;-82
2023/07/07 02:24:37;;;;;;;5.65;2.25;;;15.40;99.90;;;;;;5032640;28;20228;-82
2023/07/07 02:27:03;;;;;;;5.82;2.65;;;15.40;99.90;;;;;;5032902;28;20193;-82
2023/07/07 02:29:29;;;;;;;9.05;2.60;;;15.40;99.90;;;;;;5032637;28;20174;-83
2023/07/07 02:31:55;;;;;;;8.07;2.38;;;15.40;99.90;;;;;;5032632;28;20180;-83
2023/07/07 02:34:20;;;;;;;8.73;2.30;;;15.40;99.90;;;;;;5032811;28;20173;-83
2023/07/07 02:36:46;;;;;;;6.88;2.58;;;15.40;99.90;;;;;;5032971;28;20216;-83
2023/07/07 02:39:11;;;;;;;4.70;2.40;;;15.30;99.90;;;;;;5040918;28;20660;-83
2023/07/07 02:41:37;;;;;;;12.25;2.80;;;15.30;99.90;;;;;;5040054;28;20235;-82
2023/07/07 02:44:03;;;;;;;4.75;2.55;;;15.20;99.90;;;;;;5032366;28;20170;-80
2023/07/07 02:46:28;;;;;;;6.93;2.80;;;15.20;99.90;;;;;;5029966;28;20261;-82
2023/07/07 02:48:54;;;;;;;6.63;2.72;;;15.10;99.90;;;;;;5020363;28;20170;-83
2023/07/07 02:51:19;;;;;;;5.47;2.70;;;15.20;99.90;;;;;;5031435;28;20217;-79
2023/07/07 02:53:45;;;;;;;10.00;3.10;;;15.00;99.90;;;;;;5032009;28;20260;-79
2023/07/07 02:56:11;;;;;;;6.88;2.50;;;;;;;;;;5031866;28;20182;-79
2023/07/07 02:58:36;;;;;;;8.10;2.70;;;14.80;99.90;;;;;;5031771;28;20271;-75
2023/07/07 03:01:11;;;;;;;8.52;2.67;;;14.90;99.90;;;;;;5031079;28;20177;-74
2023/07/07 03:03:42;;;;;;;6.45;2.70;;;14.80;99.90;;;;;;5031071;28;20181;-73
2023/07/07 03:06:12;;;;;;;6.85;2.53;;;14.80;99.90;;;;;;5031913;28;20178;-70
2023/07/07 03:08:38;;;;;;;9.93;2.70;;;14.80;99.90;;;;;;5032007;28;20220;-72
2023/07/07 03:11:09;;;;;;;10.93;2.80;;;14.80;99.90;;;;;;5031331;28;20209;-72
2023/07/07 03:13:34;;;;;;;7.25;2.90;;;14.80;99.90;;;;;;5030775;28;20189;-72
2023/07/07 03:16:12;;;;;;;6.20;2.90;;;14.40;99.90;;;;;;5026906;28;20177;-72
2023/07/07 03:18:39;;;;;;;10.65;2.78;;;15.50;99.90;;;;;;5030672;28;20195;-71
2023/07/07 03:21:05;;;;;;;6.55;2.58;;;15.00;99.90;;;;;;5031484;28;20166;-73
2023/07/07 03:23:30;;;;;;;8.60;2.90;;;12.20;99.90;;;;;;5013014;28;20231;-72
2023/07/07 03:26:09;;;;;;;4.68;2.50;;;14.80;99.90;;;;;;5030157;28;20227;-74
2023/07/07 03:28:35;;;;;;;3.17;2.10;;;14.80;99.90;;;;;;5015247;28;20170;-72
2023/07/07 03:31:22;;;;;;;7.70;3.00;;;14.80;99.90;;;;;;5030924;28;20214;-72
2023/07/07 03:33:50;;;;;;;5.70;2.47;;;14.70;99.90;;;;;;5030172;28;20200;-73
2023/07/07 03:36:19;;;;;;;6.35;2.60;;;14.80;99.90;;;;;;5030289;28;20655;-72
2023/07/07 03:38:45;;;;;;;5.07;2.53;;;14.80;99.90;;;;;;5030918;28;20166;-72
2023/07/07 03:41:13;;;;;;;9.18;2.30;;;14.80;99.90;;;;;;5030405;28;20176;-71
2023/07/07 03:43:39;;;;;;;4.45;2.25;;;14.80;99.90;;;;;;5030204;28;20189;-80
2023/07/07 03:46:05;;;;;;;7.55;2.72;;;14.70;99.90;;;;;;5030426;28;20162;-82
2023/07/07 03:48:30;;;;;;;4.63;2.35;;;14.90;99.90;;;;;;5030678;28;20178;-71
2023/07/07 03:51:01;;;;;;;6.93;2.58;;;14.90;99.90;;;;;;5030570;28;20628;-72
2023/07/07 03:53:28;;;;;;;3.88;2.15;;;14.80;99.90;;;;;;5030691;28;20536;-71
2023/07/07 03:55:54;;;;;;;5.32;2.30;;;14.60;99.90;;;;;;5031003;28;20185;-72
2023/07/07 03:58:20;;;;;;;6.68;2.75;;;14.70;99.90;;;;;;5031127;28;20541;-73
2023/07/07 04:00:46;;;;;;;4.22;2.35;;;14.80;99.90;;;;;;5030681;28;20173;-71
2023/07/07 04:03:13;;;;;;;8.82;2.50;;;14.70;99.90;;;;;;5030720;28;20170;-71
2023/07/07 04:05:43;;;;;;;6.18;2.38;;;14.70;99.90;;;;;;5030814;28;20177;-73
2023/07/07 04:08:09;;;;;;;7.22;2.25;;;14.60;99.90;;;;;;5030234;28;20223;-73
2023/07/07 04:10:35;;;;;;;7.68;2.38;;;14.60;99.90;;;;;;5030723;28;20206;-73
2023/07/07 04:13:01;;;;;;;7.25;3.05;;;;;;;;;;5030241;28;20684;-72
2023/07/07 04:15:26;;;;;;;5.50;2.85;;;14.60;99.90;;;;;;5030677;28;20311;-72
2023/07/07 04:17:52;;;;;;;7.40;2.53;;;14.60;99.90;;;;;;5030346;28;20689;-73
2023/07/07 04:20:18;;;;;;;10.07;3.13;;;;;;;;;;5030412;28;20177;-73
2023/07/07 04:22:43;;;;;;;4.20;2.20;;;14.50;99.90;;;;;;5030685;28;20652;-74
2023/07/07 04:25:14;;;;;;;9.35;2.58;;;14.60;99.90;;;;;;5030318;28;20166;-73
2023/07/07 04:27:41;;;;;;;8.65;2.30;;;15.10;99.90;;;;;;5029886;28;20162;-73
2023/07/07 04:30:07;;;;;;;3.97;2.00;;;14.70;99.90;;;;;;5030273;28;20240;-72
2023/07/07 04:32:33;;;;;;;6.93;2.60;;;14.80;99.90;;;;;;5030612;28;20281;-72
2023/07/07 04:34:59;;;;;;;5.72;2.30;;;14.80;99.90;;;;;;5030666;28;20715;-72
2023/07/07 04:37:25;;;;;;;5.30;2.10;;;14.70;99.90;;;;;;5030473;28;20168;-71
2023/07/07 04:39:51;;;;;;;10.30;2.17;;;14.90;99.90;;;;;;5030489;28;20182;-72
2023/07/07 04:42:17;;;;;;;5.07;2.17;;;14.90;99.90;;;;;;5030407;28;20553;-73
2023/07/07 04:44:43;;;;;;;8.27;1.90;;;15.00;99.90;;;;;;5029969;28;20290;-73
2023/07/07 04:47:09;;;;;;;7.40;2.67;;;;;;;;;;5030800;28;20637;-74
2023/07/07 04:49:35;;;;;;;8.35;2.33;;;;;;;;;;5032070;28;20181;-71
2023/07/07 04:52:01;;;;;;;6.97;2.13;;;15.00;99.90;;;;;;5022449;28;20599;-71
2023/07/07 04:54:26;;;;;;;6.15;2.20;;;14.90;99.90;;;;;;5034540;28;20174;-72
2023/07/07 04:56:53;;;;;;;5.90;1.83;;;15.10;99.90;;;;;;5018649;28;20552;-73
2023/07/07 04:59:19;;;;;;;5.85;1.98;;;15.10;99.90;;;;;;5017078;28;20594;-73
2023/07/07 05:01:45;;;;;;;9.25;2.22;;;15.20;99.90;;;;;;5034218;28;20182;-73
2023/07/07 05:04:11;;;;;;;8.20;2.40;;;15.30;99.90;;;;;;5033898;28;20687;-72
2023/07/07 05:06:39;;;;;;;5.20;2.20;;;15.60;99.90;;;;;;5034043;28;20228;-73
2023/07/07 05:09:09;;;;;;;7.70;1.80;;;15.30;99.90;;;;;;5034030;28;20174;-74
2023/07/07 05:11:35;;;;;;;8.07;1.88;;;15.40;99.90;;;;;;5033865;28;20272;-72
2023/07/07 05:14:02;;;;;;;7.65;1.88;;;15.40;99.90;;;;;;5033586;28;20271;-72
2023/07/07 05:16:31;;;;;;;6.80;2.17;;;15.40;99.90;;;;;;5034345;28;20189;-72
2023/07/07 05:18:57;;;;;;;4.82;1.90;;;15.40;99.90;;;;;;5033927;28;20641;-72
2023/07/07 05:21:25;;;;;;;7.40;2.33;;;15.30;99.90;;;;;;5034165;28;20228;-72
2023/07/07 05:23:54;;;;;;;7.03;2.22;;;15.40;99.90;;;;;;5036165;28;20181;-72
2023/07/07 05:26:27;;;;;;;4.85;2.15;;;15.40;99.90;;;;;;5034576;28;20336;-72
2023/07/07 05:28:53;;;;;;;4.90;1.83;;;15.40;99.90;;;;;;5033557;28;20201;-71
2023/07/07 05:31:20;;;;;;;5.75;2.50;;;15.40;99.90;;;;;;5033649;28;20208;-70
2023/07/07 05:33:46;;;;;;;5.25;1.70;;;15.50;99.90;;;;;;5033471;28;20516;-70
2023/07/07 05:36:12;;;;;;;4.63;2.22;;;15.50;99.90;;;;;;5032468;28;20192;-71
2023/07/07 05:38:39;;;;;;;7.97;2.50;;;15.50;99.90;;;;;;5033674;28;20166;-70
2023/07/07 05:41:06;;;;;;;3.20;2.00;;;15.50;99.90;;;;;;5033855;28;20166;-70
2023/07/07 05:43:31;;;;;;;5.78;2.30;;;15.60;99.90;;;;;;5033696;28;20180;-71
2023/07/07 05:46:02;;;;;;;4.85;2.28;;;15.50;99.90;;;;;;5016273;28;20253;-70
2023/07/07 05:48:28;;;;;;;4.68;2.08;;;15.60;99.90;;;;;;5016768;28;20267;-72
2023/07/07 05:50:57;;;;;;;5.40;2.00;;;15.60;99.90;;;;;;5026794;28;20217;-73
2023/07/07 05:53:23;;;;;;;6.80;2.25;;;15.70;99.90;;;;;;5032915;28;20173;-74
2023/07/07 05:55:49;;;;;;;5.57;2.10;;;15.80;99.90;;;;;;5037356;28;20170;-72
2023/07/07 05:58:17;;;;;;;6.25;2.38;;;15.90;99.90;;;;;;5039167;28;20169;-73
2023/07/07 06:00:43;;;;;;;5.32;2.20;;;15.90;99.90;;;;;;5039817;28;20178;-73
2023/07/07 06:03:09;;;;;;;6.53;2.20;;;16.00;99.90;;;;;;5037319;28;20285;-73
2023/07/07 06:05:35;;;;;;;4.13;2.40;;;16.00;99.90;;;;;;5033343;28;20660;-73
2023/07/07 06:08:00;;;;;;;6.22;1.90;;;16.10;99.90;;;;;;5032707;28;20668;-73
2023/07/07 06:10:26;;;;;;;6.90;2.30;;;16.20;99.90;;;;;;5031552;28;20545;-73
2023/07/07 06:12:53;;;;;;;7.38;2.17;;;16.20;99.90;;;;;;5032587;28;20701;-73
2023/07/07 06:15:19;;;;;;;5.07;2.03;;;16.20;99.90;;;;;;5032669;28;20220;-71
2023/07/07 06:17:45;;;;;;;7.13;2.28;;;16.30;99.90;;;;;;5033052;28;20217;-74
2023/07/07 06:20:12;;;;;;;7.07;1.90;;;16.40;99.90;;;;;;5014698;28;20206;-75
2023/07/07 06:22:37;;;;;;;8.07;2.30;;;16.80;99.90;;;;;;5013238;28;20167;-74
2023/07/07 06:25:04;;;;;;;8.52;2.30;;;16.50;99.90;;;;;;5013215;28;20206;-73
2023/07/07 06:27:30;;;;;;;9.02;2.42;;;16.70;99.90;;;;;;5013034;28;20177;-73
2023/07/07 06:29:56;;;;;;;12.85;2.60;;;16.70;99.90;;;;;;5025250;28;20259;-71
2023/07/07 06:32:21;;;;;;;5.35;2.30;;;16.80;99.90;;;;;;5032100;28;20174;-70
2023/07/07 06:34:47;;;;;;;6.78;1.95;;;16.90;1.00;;;;;;5032381;28;20530;-71
2023/07/07 06:37:12;;;;;;;3.72;1.98;;;16.90;1.00;;;;;;5032712;28;20174;-72
2023/07/07 06:39:38;;;;;;;7.38;2.17;;;17.00;1.00;;;;;;5032653;28;20588;-72
2023/07/07 06:42:04;;;;;;;5.47;2.20;;;17.00;1.00;;;;;;5032478;28;20178;-73
2023/07/07 06:44:29;;;;;;;8.27;2.20;;;17.10;1.00;;;;;;5018115;28;20625;-73
2023/07/07 06:46:55;;;;;;;5.78;1.90;;;17.00;1.00;;;;;;5032399;28;20174;-73
2023/07/07 06:49:21;;;;;;;7.90;2.22;;;17.20;1.00;;;;;;5032764;28;20901;-75
2023/07/07 06:51:46;;;;;;;5.13;2.20;;;17.30;1.00;;;;;;5032487;28;20178;-74
2023/07/07 06:54:12;;;;;;;4.82;2.47;;;17.40;1.00;;;;;;5032523;28;20178;-74
2023/07/07 06:56:37;;;;;;;7.40;1.90;;;17.50;1.00;;;;;;5032393;28;20196;-74
2023/07/07 06:59:04;;;;;;;5.88;2.00;;;17.80;99.90;;;;;;5031890;28;20182;-74
2023/07/07 07:01:30;;;;;;;8.32;2.08;;;17.60;99.90;;;;;;5032028;28;20162;-70
2023/07/07 07:03:58;;;;;;;7.80;2.35;;;17.70;1.00;;;;;;5031786;28;20178;-73
2023/07/07 07:06:24;;;;;;;4.25;2.05;;;17.90;1.00;;;;;;5032439;28;20287;-74
2023/07/07 07:08:49;;;;;;;4.93;2.17;;;17.80;1.00;;;;;;5029996;28;20175;-73
2023/07/07 07:11:16;;;;;;;6.40;2.15;;;18.00;1.00;;;;;;5028200;28;20334;-72
2023/07/07 07:13:42;;;;;;;7.88;2.40;;;18.00;1.00;;;;;;5031574;28;20182;-74
2023/07/07 07:16:08;;;;;;;8.95;2.25;;;18.00;99.90;;;;;;5032192;28;20193;-74
2023/07/07 07:18:33;;;;;;;4.55;2.00;;;18.20;1.00;;;;;;5032268;28;20166;-75
2023/07/07 07:20:59;;;;;;;6.57;2.17;;;18.20;1.00;;;;;;5031730;28;20173;-77
2023/07/07 07:23:25;;;;;;;3.38;2.00;;;18.40;1.00;;;;;;5031740;28;20181;-73
2023/07/07 07:25:50;;;;;;;6.30;2.10;;;18.50;1.00;;;;;;5031018;28;20185;-72
2023/07/07 07:28:16;;;;;;;9.93;2.35;;;18.60;99.90;;;;;;5030514;28;20185;-73
2023/07/07 07:30:42;;;;;;;11.02;2.15;;;18.70;99.90;;;;;;5031088;28;20296;-73
2023/07/07 07:33:19;;;;;;;5.65;2.08;;;18.60;1.00;;;;;;5030776;28;20181;-71
2023/07/07 07:35:46;;;;;;;6.30;1.98;;;18.90;47.60;;;;;;5029905;28;20608;-71
2023/07/07 07:38:14;;;;;;;8.18;2.15;;;19.00;1.00;;;;;;5030139;28;20189;-70
2023/07/07 07:40:39;;;;;;;7.00;1.98;;;19.00;99.90;;;;;;5030770;28;20178;-71
2023/07/07 07:43:05;;;;;;;5.47;2.10;;;19.00;1.00;;;;;;5028697;28;20169;-73
2023/07/07 07:45:31;;;;;;;12.00;1.80;;;19.10;1.00;;;;;;5030280;28;20174;-69
2023/07/07 07:47:57;;;;;;;3.85;1.75;;;;;;;;;;5029252;28;20561;-70
2023/07/07 07:50:24;;;;;;;5.35;1.83;;;19.20;1.00;;;;;;5030247;28;20703;-71
2023/07/07 07:52:49;;;;;;;3.70;1.60;;;19.20;99.90;;;;;;5030874;28;20261;-72
2023/07/07 07:55:15;;;;;;;5.72;1.80;;;19.20;99.90;;;;;;5031255;28;20680;-72
2023/07/07 07:57:42;;;;;;;4.30;1.70;;;19.30;99.90;;;;;;5030234;28;20186;-67
2023/07/07 08:00:09;;;;;;;3.25;1.70;;;19.30;99.90;;;;;;5030001;28;20170;-71
2023/07/07 08:02:37;;;;;;;6.28;2.00;;;19.40;99.90;;;;;;5030304;28;20185;-73
2023/07/07 08:05:03;;;;;;;7.50;2.20;;;19.60;1.00;;;;;;5018228;28;20261;-69
2023/07/07 08:07:30;;;;;;;5.72;1.73;;;19.80;99.90;;;;;;5011304;28;20179;-72
2023/07/07 08:09:56;;;;;;;3.38;1.50;;;20.20;1.00;;;;;;5011169;28;20581;-70
2023/07/07 08:12:21;;;;;;;5.30;1.30;;;20.00;1.00;;;;;;5029748;28;20233;-70
2023/07/07 08:14:47;;;;;;;1.58;1.10;;;20.00;99.90;;;;;;5030562;28;20248;-72
2023/07/07 08:17:14;;;;;;;6.18;1.42;;;20.00;97.80;;;;;;5022740;28;20185;-74
2023/07/07 08:19:41;;;;;;;2.38;1.10;;;20.20;1.00;;;;;;5010983;28;20668;-70
2023/07/07 08:22:13;;;;;;;3.55;1.25;;;20.20;1.00;;;;;;5028714;28;20189;-80
2023/07/07 08:24:43;;;;;;;3.92;1.48;;;20.30;1.00;;;;;;5031055;28;20212;-73
2023/07/07 08:27:10;;;;;;;2.45;1.10;;;20.40;99.90;;;;;;5029945;28;20166;-70
2023/07/07 08:29:38;;;;;;;1.77;0.73;;;20.40;61.40;;;;;;5029582;28;20185;-70
2023/07/07 08:32:04;;;;;;;5.30;1.20;;;20.50;9.30;;;;;;5029999;28;20264;-68
2023/07/07 08:34:30;;;;;;;5.00;1.45;;;20.70;1.00;;;;;;5029277;28;20178;-68
2023/07/07 08:36:59;;;;;;;2.25;1.10;;;20.70;99.90;;;;;;5026614;28;20181;-67
2023/07/07 08:39:27;;;;;;;3.25;1.27;;;20.70;1.00;;;;;;5029643;28;20204;-68
2023/07/07 08:42:03;;;;;;;5.40;1.67;;;20.70;1.00;;;;;;5029731;28;20182;-67
2023/07/07 08:44:31;;;;;;;4.57;1.60;;;20.90;1.00;;;;;;5029552;28;20168;-67
2023/07/07 08:47:23;;;;;;;3.70;1.65;;;21.00;1.00;;;;;;5029982;28;20201;-68
2023/07/07 08:49:53;;;;;;;7.40;1.85;;;21.20;99.90;;;;;;4993288;28;20277;-67
2023/07/07 08:52:37;;;;;;;7.43;2.28;;;21.10;99.90;;;;;;5026847;28;20659;-67
2023/07/07 08:55:11;;;;;;;4.60;1.90;;;21.00;1.00;;;;;;5029548;28;20282;-69
2023/07/07 08:57:47;;;;;;;8.05;2.13;;;21.10;1.00;;;;;;5026494;28;20181;-68
2023/07/07 09:00:27;;;;;;;5.00;2.22;;;21.20;1.00;;;;;;5023595;28;20264;-67
2023/07/07 09:03:11;;;;;;;4.15;2.08;;;21.40;1.00;;;;;;5027555;28;20587;-68
2023/07/07 09:05:40;;;;;;;6.32;2.22;;;21.50;1.00;;;;;;5029364;28;20616;-68
2023/07/07 09:08:32;;;;;;;5.10;2.30;;;21.70;1.00;;;;;;5029175;28;20174;-68
2023/07/07 09:11:22;;;;;;;4.03;1.77;;;21.70;1.00;;;;;;5028974;28;20255;-68
2023/07/07 09:13:51;;;;;;;4.50;2.03;;;21.70;1.00;;;;;;5029047;28;20192;-69
2023/07/07 09:16:24;;;;;;;5.88;1.83;;;21.80;99.90;;;;;;5029089;28;20716;-68
2023/07/07 09:19:13;;;;;;;5.95;2.38;;;21.80;99.90;;;;;;5028289;28;20640;-66
2023/07/07 09:21:47;;;;;;;5.57;2.15;;;21.90;99.90;;;;;;5025166;28;20251;-69
2023/07/07 09:24:22;;;;;;;7.40;1.85;;;21.70;99.90;;;;;;5028676;28;20188;-69
2023/07/07 09:26:52;;;;;;;6.82;2.05;;;21.70;99.90;;;;;;5023031;28;20178;-69
2023/07/07 09:29:25;;;;;;;5.63;2.05;;;22.00;99.90;;;;;;5018029;28;20174;-68
2023/07/07 09:31:51;;;;;;;6.78;1.85;;;22.20;99.90;;;;;;5024198;28;20209;-68
2023/07/07 09:34:17;;;;;;;5.57;2.20;;;22.10;1.00;;;;;;5026321;28;20175;-77
2023/07/07 09:36:57;;;;;;;8.00;2.05;;;22.30;1.00;;;;;;5032708;28;20196;-73
2023/07/07 09:39:46;;;;;;;5.53;1.60;;;22.60;1.00;;;;;;5029880;28;20652;-72
2023/07/07 09:42:53;;;;;;;3.30;1.58;;;22.50;1.00;;;;;;5021586;28;20202;-73
2023/07/07 09:45:46;;;;;;;3.75;1.80;;;22.50;1.00;;;;;;5032781;28;20189;-72
2023/07/07 09:48:33;;;;;;;3.88;1.77;;;22.80;1.00;;;;;;5031645;28;20200;-71
2023/07/07 09:51:12;;;;;;;5.63;2.08;;;23.20;1.00;;;;;;5031577;28;20215;-71
2023/07/07 09:53:40;;;;;;;7.07;1.73;;;23.50;1.00;;;;;;5013272;28;20174;-72
2023/07/07 09:56:11;;;;;;;6.43;1.85;;;23.50;99.90;;;;;;5026706;28;20240;-71
2023/07/07 09:58:50;;;;;;;2.67;1.48;;;23.60;99.90;;;;;;5033033;28;20170;-71
2023/07/07 10:01:16;;;;;;;4.65;2.00;;;23.60;99.90;;;;;;5031893;28;20170;-71
2023/07/07 10:03:47;;;;;;;6.10;1.70;;;23.70;99.90;;;;;;5030140;28;20615;-72
2023/07/07 10:06:33;;;;;;;3.72;1.70;;;23.60;99.90;;;;;;5025240;28;20205;-71
2023/07/07 10:09:00;;;;;;;3.40;1.85;;;23.30;99.90;;;;;;5025551;28;20205;-71
2023/07/07 10:11:37;;;;;;;2.45;1.63;;;23.70;99.90;;;;;;5032058;28;20229;-73
2023/07/07 10:14:09;;;;;;;4.25;1.90;;;23.80;41.20;;;;;;5032538;28;20212;-72
2023/07/07 10:17:09;;;;;;;6.38;2.22;;;23.70;52.40;;;;;;5032826;28;20662;-75
2023/07/07 10:19:41;;;;;;;3.25;1.70;;;24.10;1.00;;;;;;5026440;28;20201;-74
2023/07/07 10:22:08;;;;;;;3.92;2.05;;;24.60;1.00;;;;;;5032941;28;20200;-76
2023/07/07 10:24:34;;;;;;;2.20;1.30;;;24.50;1.00;;;;;;5030565;28;20185;-69
2023/07/07 10:27:00;;;;;;;4.28;1.63;;;24.30;1.00;;;;;;5032884;28;20177;-70
2023/07/07 10:29:36;;;;;;;8.50;2.20;;;24.80;1.00;;;;;;5031544;28;20174;-68
2023/07/07 10:32:03;;;;;;;4.07;1.73;;;24.90;99.90;;;;;;5032264;28;20197;-70
2023/07/07 10:34:41;;;;;;;6.05;1.67;;;25.30;1.00;;;;;;5030381;28;20174;-70
2023/07/07 10:37:20;;;;;;;4.72;1.90;;;24.90;1.00;;;;;;5029203;28;20198;-70
2023/07/07 10:39:54;;;;;;;6.82;2.05;;;25.10;1.00;;;;;;5027823;28;20236;-70
2023/07/07 10:42:23;;;;;;;4.13;1.88;;;25.40;1.00;;;;;;5029987;28;20186;-71
2023/07/07 10:44:52;;;;;;;3.65;1.85;;;25.20;1.00;;;;;;5030725;28;20223;-71
2023/07/07 10:47:32;;;;;;;3.00;1.83;;;25.10;1.00;;;;;;5030287;28;20189;-70
2023/07/07 10:49:59;;;;;;;8.32;2.05;;;25.40;1.00;;;;;;5030703;28;20262;-70
2023/07/07 10:53:01;;;;;;;4.28;1.88;;;25.50;1.00;;;;;;5030716;28;20177;-71
2023/07/07 10:56:04;;;;;;;4.50;2.08;;;25.50;1.00;;;;;;5032082;28;20184;-70
2023/07/07 10:59:06;;;;;;;6.07;2.03;;;25.40;1.00;;;;;;5024533;28;20181;-70
2023/07/07 11:01:45;;;;;;;5.00;1.83;;;25.70;1.00;;;;;;5031588;28;20177;-71
2023/07/07 11:04:38;;;;;;;4.90;2.17;;;25.30;1.00;;;;;;5047430;28;20170;-71
2023/07/07 11:07:22;;;;;;;5.75;2.17;;;25.50;1.00;;;;;;5031947;28;20174;-71
2023/07/07 11:10:07;;;;;;;5.10;1.92;;;25.30;1.00;;;;;;5032003;28;20181;-70
2023/07/07 11:12:38;;;;;;;3.17;1.80;;;25.90;1.00;;;;;;5031970;28;20226;-69
2023/07/07 11:15:21;;;;;;;5.57;2.17;;;26.40;1.00;;;;;;5031814;28;20179;-71
2023/07/07 11:17:55;;;;;;;2.92;1.90;;;25.90;99.90;;;;;;5031933;28;20174;-70
2023/07/07 11:20:51;;;;;;;3.47;1.80;;;26.70;99.90;;;;;;5030832;28;20165;-74
2023/07/07 11:23:25;;;;;;;3.70;2.25;;;26.70;99.90;;;;;;5030829;28;20224;-71
2023/07/07 11:26:39;;;;;;;3.53;1.65;;;26.50;99.90;;;;;;5030585;28;20184;-70
2023/07/07 11:29:10;;;;;;;5.38;2.10;;;26.00;99.90;;;;;;4988365;28;20175;-68
2023/07/07 11:32:11;;;;;;;6.63;2.03;;;26.00;99.90;;;;;;4988487;28;20470;-70
2023/07/07 11:35:01;;;;;;;4.53;2.10;;;26.10;99.90;;;;;;5009540;28;20209;-68
2023/07/07 11:37:52;;;;;;;3.33;2.00;;;26.00;99.90;;;;;;5030608;28;20633;-69
2023/07/07 11:41:04;;;;;;;6.18;2.17;;;26.70;99.90;;;;;;5031284;28;20184;-68
2023/07/07 11:44:02;;;;;;;4.30;2.13;;;28.10;99.90;;;;;;5030907;28;20197;-70
2023/07/07 11:46:51;;;;;;;5.60;2.00;;;27.80;99.90;;;;;;5031251;28;20170;-72
2023/07/07 11:49:32;;;;;;;6.93;2.40;;;27.20;99.90;;;;;;5030855;28;20324;-70
2023/07/07 11:52:36;;;;;;;5.68;2.10;;;27.40;99.90;;;;;;5030400;28;20180;-71
2023/07/07 11:55:25;;;;;;;5.45;2.00;;;27.40;99.90;;;;;;5015310;28;20196;-71
2023/07/07 11:58:04;;;;;;;5.38;2.00;;;27.00;99.90;;;;;;5030311;28;20269;-70
2023/07/07 12:00:42;;;;;;;6.93;2.20;;;27.50;99.90;;;;;;5029566;28;20633;-71
2023/07/07 12:03:23;;;;;;;5.10;2.40;;;27.40;99.90;;;;;;5045548;28;20261;-71
2023/07/07 12:05:51;;;;;;;5.35;2.47;;;27.20;92.90;;;;;;5031192;28;20190;-71
2023/07/07 12:08:35;;;;;;;5.10;2.10;;;27.40;90.80;;;;;;5030896;28;20174;-72
2023/07/07 12:11:04;;;;;;;3.33;1.98;;;26.60;12.70;;;;;;5030581;28;20205;-70
2023/07/07 12:13:37;;;;;;;8.23;2.20;;;26.60;28.30;;;;;;5031449;28;20653;-71
2023/07/07 12:16:19;;;;;;;4.93;1.92;;;26.60;11.70;;;;;;5030556;28;20169;-70
2023/07/07 12:18:47;;;;;;;3.03;1.67;;;27.50;17.80;;;;;;5030804;28;20177;-69
2023/07/07 12:21:20;;;;;;;5.95;1.85;;;26.60;1.00;;;;;;5030535;28;20681;-69
2023/07/07 12:24:18;;;;;;;8.43;2.47;;;26.50;1.00;;;;;;5029434;28;20162;-70
2023/07/07 12:26:50;;;;;;;4.47;1.90;;;26.80;1.00;;;;;;5021472;28;20261;-70
2023/07/07 12:29:17;;;;;;;7.72;2.40;;;27.30;49.80;;;;;;5011247;28;20174;-71
2023/07/07 12:31:43;;;;;;;7.25;2.35;;;27.40;1.00;;;;;;5027456;28;20233;-71
2023/07/07 12:34:49;;;;;;;3.58;1.90;;;27.60;1.00;;;;;;5030511;28;20173;-70
2023/07/07 12:37:21;;;;;;;4.63;1.95;;;28.10;1.00;;;;;;5030101;28;20178;-70
2023/07/07 12:40:09;;;;;;;4.30;2.10;;;28.40;18.00;;;;;;5030468;28;20251;-70
2023/07/07 12:42:37;;;;;;;4.88;1.70;;;28.60;99.90;;;;;;5025021;28;20186;-70
2023/07/07 12:45:31;;;;;;;3.33;1.90;;;28.90;27.10;;;;;;5010622;28;20647;-69
2023/07/07 12:48:06;;;;;;;4.97;1.98;;;29.40;99.90;;;;;;5011010;28;20178;-71
2023/07/07 12:50:35;;;;;;;3.80;1.90;;;29.60;99.90;;;;;;5010622;28;20205;-71
2023/07/07 12:53:17;;;;;;;3.03;1.48;;;29.40;99.90;;;;;;5010377;28;20265;-72
2023/07/07 12:56:06;;;;;;;4.15;1.55;;;29.90;99.90;;;;;;5012132;28;20253;-70
2023/07/07 12:58:44;;;;;;;2.70;1.80;;;29.10;99.90;;;;;;5030157;28;20664;-71
2023/07/07 13:01:34;;;;;;;3.55;1.80;;;28.70;99.90;;;;;;5030249;28;20708;-70
2023/07/07 13:04:07;;;;;;;7.43;1.80;;;29.10;99.90;;;;;;5030326;28;20181;-71
2023/07/07 13:07:06;;;;;;;4.88;2.10;;;29.50;99.90;;;;;;5030411;28;20158;-70
2023/07/07 13:09:48;;;;;;;3.20;1.80;;;27.70;72.10;;;;;;4989697;28;20244;-70
2023/07/07 13:12:42;;;;;;;4.35;1.92;;;28.20;97.90;;;;;;5033992;28;20287;-70
2023/07/07 13:15:24;;;;;;;5.85;1.80;;;28.30;86.80;;;;;;5034014;28;20181;-71
2023/07/07 13:17:52;;;;;;;5.95;1.80;;;28.40;68.80;;;;;;5033350;28;20201;-71